Terminal Aerodrome Forecast
Issued by NWS Sterling, VA

Home | Current Version | Previous Version | Text Only | Print | Product List | Glossary On
Versions: 1 2 3 4 5 6 7 8 9 10 11 12 13 14 15 16
702
FTUS41 KLWX 242335
TAFCHO
TAF
KCHO 242335Z 2500/2524 03011G22KT 2SM -RA OVC007
     FM250200 03010KT 2SM -RA OVC003
     FM251100 03010G17KT 2SM -RA OVC003
     FM251300 03010KT 1 1/2SM -RA OVC003=

USA.gov is the U.S. government's official web portal to all federal, state and local government web resources and services.